Time;durP1;ratioP1;P1;durP2;ratioP2;P2;SDS_P1;SDS_P2;PMS_P1;PMS_P2;Temp;Humidity;BMP_temperature;BMP_pressure;BME280_temperature;BME280_humidity;BME280_pressure;Samples;Min_cycle;Max_cycle;Signal;HPM_P1;HPM_P2
2024/03/13 00:01:16;;;;;;;;;;;;;;;10.30;71.29;99876.81;4141425;28;19910;-70
2024/03/13 00:03:17;;;;;;;;;;;;;;;10.27;71.49;99868.25;4141328;28;20420;-72
2024/03/13 00:05:17;;;;;;;;;;;;;;;10.19;71.63;99876.16;4139468;28;19910;-72
2024/03/13 00:07:19;;;;;;;;;;;;;;;10.15;71.38;99868.44;4136197;28;19910;-70
2024/03/13 00:09:20;;;;;;;;;;;;;;;10.17;71.98;99867.44;4134550;28;20408;-71
2024/03/13 00:11:20;;;;;;;;;;;;;;;10.09;71.88;99866.38;4133328;28;19914;-71
2024/03/13 00:13:23;;;;;;;;;;;;;;;10.06;72.21;99861.31;4133825;28;20012;-70
2024/03/13 00:15:24;;;;;;;;;;;;;;;10.14;72.51;99864.06;4133688;28;19963;-72
2024/03/13 00:17:25;;;;;;;;;;;;;;;10.10;72.65;99860.03;4133834;28;19914;-71
2024/03/13 00:19:25;;;;;;;;;;;;;;;10.07;72.00;99860.31;4132814;28;19910;-70
2024/03/13 00:21:27;;;;;;;;;;;;;;;10.04;72.17;99857.94;4133986;28;19920;-70
2024/03/13 00:23:27;;;;;;;;;;;;;;;9.99;71.82;99852.19;4133628;28;19921;-70
2024/03/13 00:25:28;;;;;;;;;;;;;;;10.00;71.69;99853.88;4132137;28;19913;-71
2024/03/13 00:27:28;;;;;;;;;;;;;;;10.01;71.60;99855.56;4134286;28;19921;-70
2024/03/13 00:29:29;;;;;;;;;;;;;;;10.03;71.50;99847.41;4132964;28;19922;-70
2024/03/13 00:31:29;;;;;;;;;;;;;;;10.03;71.89;99842.88;4134700;28;19917;-71
2024/03/13 00:33:30;;;;;;;;;;;;;;;9.99;71.35;99844.19;4146175;28;19917;-71
2024/03/13 00:35:30;;;;;;;;;;;;;;;9.95;71.65;99846.31;4145721;28;19910;-72
2024/03/13 00:37:31;;;;;;;;;;;;;;;9.89;71.14;99841.53;4137202;28;20350;-71
2024/03/13 00:39:31;;;;;;;;;;;;;;;10.02;71.33;99835.03;4137043;28;19917;-71
2024/03/13 00:41:32;;;;;;;;;;;;;;;10.05;71.11;99837.41;4137091;28;19937;-71
2024/03/13 00:43:32;;;;;;;;;;;;;;;10.03;70.78;99839.38;4134396;28;19973;-72
2024/03/13 00:45:33;;;;;;;;;;;;;;;9.98;71.08;99834.50;4134699;28;19910;-71
2024/03/13 00:47:34;;;;;;;;;;;;;;;10.05;70.97;99830.22;4135157;28;19942;-71
2024/03/13 00:49:35;;;;;;;;;;;;;;;9.98;70.77;99835.31;4135243;28;20366;-71
2024/03/13 00:51:39;;;;;;;;;;;;;;;10.09;70.88;99838.78;4135176;28;19913;-72
2024/03/13 00:53:39;;;;;;;;;;;;;;;10.06;70.30;99834.59;4135299;28;19913;-72
2024/03/13 00:55:40;;;;;;;;;;;;;;;10.15;71.16;99835.56;4134421;28;19909;-72
2024/03/13 00:57:41;;;;;;;;;;;;;;;10.07;70.73;99833.59;4135810;28;19977;-71
2024/03/13 00:59:42;;;;;;;;;;;;;;;10.12;70.88;99825.97;4134612;28;19909;-71
2024/03/13 01:01:48;;;;;;;;;;;;;;;10.11;70.05;99832.31;4135525;28;19964;-72
2024/03/13 01:03:49;;;;;;;;;;;;;;;10.06;70.58;99834.59;4142683;28;19909;-71
2024/03/13 01:05:50;;;;;;;;;;;;;;;10.03;71.37;99829.53;4133979;28;19960;-71
2024/03/13 01:07:50;;;;;;;;;;;;;;;10.11;70.71;99832.31;4136263;28;19914;-74
2024/03/13 01:09:51;;;;;;;;;;;;;;;10.10;71.36;99830.66;4146051;28;19920;-70
2024/03/13 01:11:53;;;;;;;;;;;;;;;10.14;70.78;99824.00;4140022;28;19918;-72
2024/03/13 01:13:53;;;;;;;;;;;;;;;10.19;70.56;99833.44;4139163;28;19909;-73
2024/03/13 01:15:54;;;;;;;;;;;;;;;10.17;71.75;99836.22;4139876;28;19959;-71
2024/03/13 01:17:57;;;;;;;;;;;;;;;9.99;71.04;99836.16;4139417;28;19963;-71
2024/03/13 01:19:57;;;;;;;;;;;;;;;10.13;71.09;99840.19;4140275;28;19925;-71
2024/03/13 01:22:05;;;;;;;;;;;;;;;10.24;71.00;99850.69;4138093;28;19910;-72
2024/03/13 01:24:06;;;;;;;;;;;;;;;10.19;70.57;99838.78;4139789;28;19945;-70
2024/03/13 01:26:10;;;;;;;;;;;;;;;10.18;69.79;99832.56;4139646;28;20307;-72
2024/03/13 01:28:10;;;;;;;;;;;;;;;10.16;70.62;99839.88;4137554;28;19914;-71
2024/03/13 01:30:13;;;;;;;;;;;;;;;9.78;71.75;99839.88;4140629;28;19973;-71
2024/03/13 01:32:15;;;;;;;;;;;;;;;10.00;71.58;99837.84;4139103;28;19914;-71
2024/03/13 01:34:16;;;;;;;;;;;;;;;9.76;72.06;99847.19;4140043;28;19910;-70
2024/03/13 01:37:55;;;;;;;;;;;;;;;9.67;72.54;99835.56;4113098;28;807987;-71
2024/03/13 01:38:37;;;;;;;;;;;;;;;9.84;72.67;99833.97;4134819;28;19917;-70
2024/03/13 01:57:15;;;;;;;;;;;;;;;9.85;71.64;99826.81;4143024;28;19952;-71
2024/03/13 01:59:23;;;;;;;;;;;;;;;9.79;71.71;99817.53;4140531;28;19929;-72
2024/03/13 02:03:44;;;;;;;;;;;;;;;9.80;71.07;99819.22;4133449;28;19917;-71
2024/03/13 02:05:47;;;;;;;;;;;;;;;9.70;71.25;99812.22;4139835;28;20362;-70
2024/03/13 02:07:48;;;;;;;;;;;;;;;9.61;71.51;99813.94;4139002;28;19992;-70
2024/03/13 02:09:49;;;;;;;;;;;;;;;9.77;71.42;99811.50;4139144;28;19917;-71
2024/03/13 02:11:50;;;;;;;;;;;;;;;9.72;71.06;99805.78;4154043;28;20347;-70
2024/03/13 02:13:51;;;;;;;;;;;;;;;9.49;71.92;99795.44;4139360;28;19920;-70
2024/03/13 02:15:53;;;;;;;;;;;;;;;9.73;71.03;99796.75;4138031;28;20004;-70
2024/03/13 02:17:54;;;;;;;;;;;;;;;9.66;70.96;99801.00;4137860;28;20388;-70
2024/03/13 02:19:57;;;;;;;;;;;;;;;9.70;71.26;99797.06;4137572;28;20362;-70
2024/03/13 02:21:59;;;;;;;;;;;;;;;9.58;71.64;99795.53;4137902;28;19914;-71
2024/03/13 02:24:00;;;;;;;;;;;;;;;9.59;71.29;99794.56;4139279;28;19914;-70
2024/03/13 02:26:00;;;;;;;;;;;;;;;9.64;71.25;99792.28;4142120;28;19910;-71
2024/03/13 02:28:01;;;;;;;;;;;;;;;9.59;71.24;99799.91;4145840;28;19933;-72
2024/03/13 02:30:01;;;;;;;;;;;;;;;9.74;70.70;99789.59;4150178;28;19910;-72
2024/03/13 02:32:02;;;;;;;;;;;;;;;9.72;70.63;99779.06;4141467;28;20004;-72
2024/03/13 02:34:04;;;;;;;;;;;;;;;9.78;70.14;99781.16;4146049;28;19986;-72
2024/03/13 02:36:05;;;;;;;;;;;;;;;9.66;70.87;99783.16;4146130;28;19910;-73
2024/03/13 02:38:07;;;;;;;;;;;;;;;9.61;70.24;99781.91;4145476;28;19933;-72
2024/03/13 02:40:10;;;;;;;;;;;;;;;9.66;70.68;99779.66;4140575;28;20004;-71
2024/03/13 02:42:10;;;;;;;;;;;;;;;9.81;70.36;99774.69;4145321;28;19974;-72
2024/03/13 02:44:11;;;;;;;;;;;;;;;9.54;70.71;99773.66;4140847;28;19925;-71
2024/03/13 02:46:12;;;;;;;;;;;;;;;9.80;70.60;99786.34;4140237;28;20164;-71
2024/03/13 02:48:15;;;;;;;;;;;;;;;9.61;70.42;99776.59;4136596;28;20398;-71
2024/03/13 02:50:17;;;;;;;;;;;;;;;9.67;71.04;99781.31;4141156;28;19941;-70
2024/03/13 02:52:18;;;;;;;;;;;;;;;9.55;71.40;99779.81;4148343;28;19913;-71
2024/03/13 02:54:18;;;;;;;;;;;;;;;9.81;70.66;99782.69;4139765;28;19916;-71
2024/03/13 02:56:19;;;;;;;;;;;;;;;9.86;70.15;99780.44;4139669;28;19917;-71
2024/03/13 02:58:21;;;;;;;;;;;;;;;9.73;70.64;99780.72;4139886;28;19913;-71
2024/03/13 03:00:24;;;;;;;;;;;;;;;9.60;70.39;99780.22;4140870;28;19910;-71
2024/03/13 03:02:25;;;;;;;;;;;;;;;9.75;69.99;99781.44;4140872;28;20329;-70
2024/03/13 03:04:26;;;;;;;;;;;;;;;9.60;70.56;99781.06;4140774;28;19910;-70
2024/03/13 03:06:26;;;;;;;;;;;;;;;9.50;70.87;99785.56;4141870;28;19937;-71
2024/03/13 03:08:27;;;;;;;;;;;;;;;9.56;70.77;99784.16;4139822;28;19952;-70
2024/03/13 03:10:29;;;;;;;;;;;;;;;9.50;71.22;99791.78;4140310;28;19952;-70
2024/03/13 03:12:30;;;;;;;;;;;;;;;9.49;71.03;99789.25;4141561;28;20344;-71
2024/03/13 03:14:32;;;;;;;;;;;;;;;9.54;71.01;99788.81;4140911;28;19909;-70
2024/03/13 03:16:33;;;;;;;;;;;;;;;9.72;70.22;99791.56;4140149;28;19910;-71
2024/03/13 03:18:34;;;;;;;;;;;;;;;9.68;69.86;99793.69;4139206;28;20342;-71
2024/03/13 03:20:34;;;;;;;;;;;;;;;9.64;70.15;99801.16;4141067;28;19960;-70
2024/03/13 03:22:35;;;;;;;;;;;;;;;9.88;69.50;99793.63;4140214;28;19916;-70
2024/03/13 03:24:35;;;;;;;;;;;;;;;9.88;69.52;99788.28;4141068;28;19910;-69
2024/03/13 03:26:36;;;;;;;;;;;;;;;9.82;69.46;99795.88;4141519;28;19910;-70
2024/03/13 03:28:36;;;;;;;;;;;;;;;9.80;69.64;99787.19;4141371;28;19920;-69
2024/03/13 03:30:42;;;;;;;;;;;;;;;9.92;69.33;99792.34;4141540;28;19910;-70
2024/03/13 03:32:42;;;;;;;;;;;;;;;9.99;68.95;99796.94;4141271;28;19913;-70
2024/03/13 03:34:43;;;;;;;;;;;;;;;9.80;69.34;99792.53;4141336;28;19910;-70
2024/03/13 03:36:43;;;;;;;;;;;;;;;9.95;69.30;99800.06;4139865;28;19925;-71
2024/03/13 03:38:44;;;;;;;;;;;;;;;9.66;70.11;99795.66;4141338;28;19959;-71
2024/03/13 03:40:45;;;;;;;;;;;;;;;9.86;69.14;99798.25;4140010;28;19916;-72
2024/03/13 03:42:48;;;;;;;;;;;;;;;9.65;70.14;99791.31;4140802;28;19909;-71
2024/03/13 03:44:48;;;;;;;;;;;;;;;9.74;69.19;99793.09;4133228;28;19910;-71
2024/03/13 03:46:49;;;;;;;;;;;;;;;9.63;70.19;99790.63;4140857;28;19960;-72
2024/03/13 03:48:50;;;;;;;;;;;;;;;9.73;69.78;99794.06;4141502;28;20303;-71
2024/03/13 03:50:50;;;;;;;;;;;;;;;9.86;68.96;99790.25;4130642;28;19918;-74
2024/03/13 03:52:51;;;;;;;;;;;;;;;9.84;69.21;99795.75;4138196;28;19920;-71
2024/03/13 03:54:51;;;;;;;;;;;;;;;9.63;69.72;99796.78;4145163;28;19956;-70
2024/03/13 03:56:58;;;;;;;;;;;;;;;9.77;69.92;99792.81;4147632;28;19913;-71
2024/03/13 03:58:59;;;;;;;;;;;;;;;9.87;69.12;99791.94;4147436;28;19920;-74
2024/03/13 04:01:00;;;;;;;;;;;;;;;9.69;69.32;99795.38;4149031;28;19939;-71
2024/03/13 04:03:02;;;;;;;;;;;;;;;9.83;69.47;99796.72;4148541;28;19913;-73
2024/03/13 04:05:06;;;;;;;;;;;;;;;10.03;68.68;99789.47;4143839;28;19977;-71
2024/03/13 04:07:07;;;;;;;;;;;;;;;9.84;69.36;99793.91;4147372;28;19898;-71
2024/03/13 04:09:19;;;;;;;;;;;;;;;9.63;69.65;99794.13;4145204;28;19913;-71
2024/03/13 04:11:19;;;;;;;;;;;;;;;9.96;68.76;99799.06;4143667;28;19914;-73
2024/03/13 04:13:22;;;;;;;;;;;;;;;9.89;68.33;99795.31;4158406;28;20605;-71
2024/03/13 04:15:23;;;;;;;;;;;;;;;9.92;68.67;99803.88;4143387;28;20301;-72
2024/03/13 04:17:23;;;;;;;;;;;;;;;9.94;68.46;99798.38;4141223;28;19917;-71
2024/03/13 04:19:24;;;;;;;;;;;;;;;9.86;68.39;99803.59;4146928;28;19909;-70
2024/03/13 04:21:26;;;;;;;;;;;;;;;9.93;68.62;99799.34;4141019;28;19925;-70
2024/03/13 04:23:26;;;;;;;;;;;;;;;9.81;68.70;99804.91;4142952;28;19916;-71
2024/03/13 04:25:27;;;;;;;;;;;;;;;9.81;68.82;99794.22;4137614;28;20314;-71
2024/03/13 04:27:28;;;;;;;;;;;;;;;9.93;68.56;99796.69;4139630;28;20428;-73
2024/03/13 04:29:28;;;;;;;;;;;;;;;9.71;69.14;99798.75;4140500;28;20362;-71
2024/03/13 04:31:29;;;;;;;;;;;;;;;9.57;69.62;99799.19;4140465;28;20173;-70
2024/03/13 04:33:29;;;;;;;;;;;;;;;9.76;69.38;99796.47;4139878;28;19913;-70
2024/03/13 04:35:29;;;;;;;;;;;;;;;9.70;69.57;99799.72;4138721;28;20321;-72
2024/03/13 04:37:30;;;;;;;;;;;;;;;9.82;69.37;99803.88;4139529;28;20381;-71
2024/03/13 04:39:32;;;;;;;;;;;;;;;9.80;69.23;99797.00;4139988;28;19971;-71
2024/03/13 04:41:39;;;;;;;;;;;;;;;9.74;69.02;99802.94;4139302;28;20382;-70
2024/03/13 04:43:39;;;;;;;;;;;;;;;9.81;69.52;99801.38;4138952;28;19916;-70
2024/03/13 04:45:40;;;;;;;;;;;;;;;9.80;68.93;99813.91;4139871;28;19914;-71
2024/03/13 04:47:40;;;;;;;;;;;;;;;9.80;69.08;99813.03;4137643;28;19917;-72
2024/03/13 04:49:43;;;;;;;;;;;;;;;9.73;69.13;99812.75;4138895;28;19910;-71
2024/03/13 04:51:43;;;;;;;;;;;;;;;9.68;68.84;99813.19;4137711;28;19981;-70
2024/03/13 04:53:44;;;;;;;;;;;;;;;9.54;69.98;99818.19;4137111;28;20351;-70
2024/03/13 04:55:44;;;;;;;;;;;;;;;9.63;69.75;99817.31;4136723;28;19910;-71
2024/03/13 04:57:45;;;;;;;;;;;;;;;9.60;69.41;99820.25;4136309;28;19910;-70
2024/03/13 04:59:45;;;;;;;;;;;;;;;9.80;69.22;99835.25;4136379;28;20014;-70
2024/03/13 05:01:46;;;;;;;;;;;;;;;9.74;69.43;99832.31;4136129;28;19920;-70
2024/03/13 05:03:46;;;;;;;;;;;;;;;9.58;69.70;99836.44;4135994;28;19977;-70
2024/03/13 05:05:47;;;;;;;;;;;;;;;9.63;69.85;99828.00;4135152;28;20000;-71
2024/03/13 05:07:47;;;;;;;;;;;;;;;9.66;69.80;99835.69;4135565;28;20333;-71
2024/03/13 05:09:49;;;;;;;;;;;;;;;9.57;69.92;99824.06;4137915;28;19906;-73
2024/03/13 05:11:50;;;;;;;;;;;;;;;9.60;69.79;99822.94;4137724;28;20382;-71
2024/03/13 05:13:51;;;;;;;;;;;;;;;9.81;69.25;99833.41;4139419;28;19917;-71
2024/03/13 05:15:54;;;;;;;;;;;;;;;9.76;69.57;99831.19;4138165;28;19972;-71
2024/03/13 05:17:55;;;;;;;;;;;;;;;9.74;69.27;99837.66;4138541;28;19960;-71
2024/03/13 05:19:58;;;;;;;;;;;;;;;9.63;70.02;99828.81;4137732;28;19913;-71
2024/03/13 05:21:59;;;;;;;;;;;;;;;9.86;69.33;99838.31;4129583;28;19910;-71
2024/03/13 05:24:00;;;;;;;;;;;;;;;9.75;69.16;99837.50;4138813;28;19914;-71
2024/03/13 05:26:00;;;;;;;;;;;;;;;9.71;69.00;99836.13;4129652;28;20135;-73
2024/03/13 05:28:01;;;;;;;;;;;;;;;9.44;70.00;99840.38;4145885;28;19909;-74
2024/03/13 05:30:01;;;;;;;;;;;;;;;9.55;70.24;99846.53;4145898;28;19996;-72
2024/03/13 05:32:07;;;;;;;;;;;;;;;9.64;70.00;99843.84;4129453;28;19914;-74
2024/03/13 05:34:08;;;;;;;;;;;;;;;9.77;69.73;99843.53;4139653;28;19909;-72
2024/03/13 05:36:11;;;;;;;;;;;;;;;9.73;69.99;99843.97;4138970;28;19977;-71
2024/03/13 05:38:12;;;;;;;;;;;;;;;9.61;69.83;99846.81;4138794;28;19920;-70
2024/03/13 05:40:12;;;;;;;;;;;;;;;9.70;69.72;99850.44;4139412;28;20000;-71
2024/03/13 05:42:13;;;;;;;;;;;;;;;9.69;69.60;99838.09;4137315;28;19910;-71
2024/03/13 05:44:15;;;;;;;;;;;;;;;9.73;69.54;99841.31;4139454;28;19916;-71
2024/03/13 05:46:15;;;;;;;;;;;;;;;9.78;69.67;99847.91;4138971;28;20104;-71
2024/03/13 05:48:16;;;;;;;;;;;;;;;9.65;70.31;99853.56;4139578;28;19910;-71
2024/03/13 05:50:17;;;;;;;;;;;;;;;9.59;70.17;99854.09;4139104;28;19910;-71
2024/03/13 05:52:18;;;;;;;;;;;;;;;9.60;70.50;99860.28;4138330;28;19973;-71
2024/03/13 05:54:19;;;;;;;;;;;;;;;9.58;70.22;99856.91;4138810;28;19914;-71
2024/03/13 05:56:21;;;;;;;;;;;;;;;9.51;70.58;99860.16;4142405;28;19935;-71
2024/03/13 05:58:21;;;;;;;;;;;;;;;9.59;70.22;99863.94;4142418;28;19909;-70
2024/03/13 06:00:23;;;;;;;;;;;;;;;9.35;71.05;99862.59;4142792;28;19917;-70
2024/03/13 06:02:23;;;;;;;;;;;;;;;9.59;70.99;99853.28;4142429;28;19997;-71
2024/03/13 06:04:24;;;;;;;;;;;;;;;9.40;70.67;99857.66;4141837;28;19913;-70
2024/03/13 06:06:24;;;;;;;;;;;;;;;9.54;70.24;99859.03;4142410;28;19953;-72
2024/03/13 06:08:27;;;;;;;;;;;;;;;9.53;70.61;99870.69;4141003;28;20339;-71
2024/03/13 06:10:27;;;;;;;;;;;;;;;9.71;70.24;99870.81;4141510;28;19917;-71
2024/03/13 06:12:28;;;;;;;;;;;;;;;9.60;69.77;99876.31;4141684;28;19929;-73
2024/03/13 06:14:28;;;;;;;;;;;;;;;9.72;70.03;99869.84;4142018;28;19909;-71
2024/03/13 06:16:30;;;;;;;;;;;;;;;9.52;70.31;99879.69;4141856;28;19993;-70
2024/03/13 06:18:31;;;;;;;;;;;;;;;9.31;71.12;99871.84;4140992;28;19941;-71
2024/03/13 06:20:31;;;;;;;;;;;;;;;9.28;71.52;99878.31;4141448;28;19933;-71
2024/03/13 06:22:32;;;;;;;;;;;;;;;9.62;70.40;99880.50;4141358;28;19956;-72
2024/03/13 06:24:33;;;;;;;;;;;;;;;9.65;70.23;99871.38;4139670;28;20038;-71
2024/03/13 06:26:33;;;;;;;;;;;;;;;9.47;71.78;99877.44;4139455;28;19913;-71
2024/03/13 06:30:53;;;;;;;;;;;;;;;9.66;70.95;99883.75;4139092;28;19985;-70
2024/03/13 06:32:54;;;;;;;;;;;;;;;9.73;70.89;99882.16;4139267;28;19913;-71
2024/03/13 06:34:56;;;;;;;;;;;;;;;9.52;71.69;99877.88;4140417;28;20580;-71
2024/03/13 06:36:57;;;;;;;;;;;;;;;9.62;71.20;99879.69;4140065;28;19914;-70
2024/03/13 06:38:57;;;;;;;;;;;;;;;9.48;71.51;99873.78;4139783;28;19985;-70
2024/03/13 06:40:58;;;;;;;;;;;;;;;9.51;71.67;99870.84;4135284;28;20410;-72
2024/03/13 06:42:58;;;;;;;;;;;;;;;9.60;70.99;99876.31;4139871;28;19961;-71
2024/03/13 06:44:58;;;;;;;;;;;;;;;9.57;71.26;99866.78;4139379;28;19910;-71
2024/03/13 06:46:59;;;;;;;;;;;;;;;9.62;70.97;99872.50;4138443;28;19951;-70
2024/03/13 06:48:59;;;;;;;;;;;;;;;9.67;71.00;99877.41;4138870;28;19917;-71
2024/03/13 06:51:02;;;;;;;;;;;;;;;9.71;71.27;99884.16;4136748;28;19925;-70
2024/03/13 06:53:02;;;;;;;;;;;;;;;9.63;70.77;99878.72;4139643;28;20004;-72
2024/03/13 06:55:03;;;;;;;;;;;;;;;9.59;70.79;99879.97;4139325;28;19910;-70
2024/03/13 06:57:03;;;;;;;;;;;;;;;9.65;70.69;99885.56;4146486;28;19909;-71
2024/03/13 06:59:06;;;;;;;;;;;;;;;9.65;71.19;99885.56;4138014;28;19917;-71
2024/03/13 07:01:10;;;;;;;;;;;;;;;9.66;70.85;99894.41;4138273;28;19917;-71
2024/03/13 07:03:11;;;;;;;;;;;;;;;9.71;71.10;99889.50;4139235;28;20001;-70
2024/03/13 07:05:12;;;;;;;;;;;;;;;9.63;71.35;99890.22;4139207;28;19940;-72
2024/03/13 07:07:13;;;;;;;;;;;;;;;9.63;71.38;99889.38;4145230;28;19909;-73
2024/03/13 07:09:14;;;;;;;;;;;;;;;9.91;70.45;99898.31;4139715;28;19910;-72
2024/03/13 07:11:14;;;;;;;;;;;;;;;10.01;70.22;99886.75;4137034;28;19913;-72
2024/03/13 07:13:14;;;;;;;;;;;;;;;9.77;70.68;99896.94;4136774;28;20410;-71
2024/03/13 07:15:15;;;;;;;;;;;;;;;9.77;70.78;99904.94;4137381;28;19916;-72
2024/03/13 07:17:16;;;;;;;;;;;;;;;9.81;70.49;99906.34;4134837;28;20398;-71
2024/03/13 07:19:18;;;;;;;;;;;;;;;9.74;70.93;99902.53;4137385;28;19909;-71
2024/03/13 07:21:18;;;;;;;;;;;;;;;9.96;70.09;99904.06;4138357;28;19909;-70
2024/03/13 07:23:18;;;;;;;;;;;;;;;10.03;69.79;99898.97;4138425;28;19975;-70
2024/03/13 07:25:19;;;;;;;;;;;;;;;10.14;69.52;99906.81;4144304;28;19997;-70
2024/03/13 07:27:21;;;;;;;;;;;;;;;10.09;69.53;99901.09;4130281;28;19921;-71
2024/03/13 07:29:21;;;;;;;;;;;;;;;10.06;69.35;99909.38;4135068;28;20333;-70
2024/03/13 07:31:23;;;;;;;;;;;;;;;10.14;69.54;99906.81;4134163;28;19972;-72
2024/03/13 07:33:23;;;;;;;;;;;;;;;10.26;69.22;99909.31;4135968;28;20004;-71
2024/03/13 07:35:24;;;;;;;;;;;;;;;10.29;69.17;99904.53;4138625;28;20365;-70
2024/03/13 07:37:25;;;;;;;;;;;;;;;10.09;69.81;99905.56;4146278;28;19905;-71
2024/03/13 07:39:28;;;;;;;;;;;;;;;10.17;70.10;99894.16;4148775;28;19945;-71
2024/03/13 07:41:30;;;;;;;;;;;;;;;9.75;71.12;99911.41;4136057;28;20255;-69
2024/03/13 07:43:31;;;;;;;;;;;;;;;9.84;70.77;99914.06;4144909;28;20376;-70
2024/03/13 07:45:31;;;;;;;;;;;;;;;9.81;71.16;99910.84;4136103;28;19909;-73
2024/03/13 07:47:31;;;;;;;;;;;;;;;10.13;70.70;99915.81;4135460;28;19914;-71
2024/03/13 07:49:32;;;;;;;;;;;;;;;10.34;69.38;99912.09;4132101;28;19917;-70
2024/03/13 07:51:33;;;;;;;;;;;;;;;10.31;69.86;99920.41;4132017;28;19918;-71
2024/03/13 07:53:33;;;;;;;;;;;;;;;10.17;69.96;99911.03;4137043;28;20004;-71
2024/03/13 07:55:36;;;;;;;;;;;;;;;10.49;69.25;99916.97;4135021;28;19936;-71
2024/03/13 07:57:37;;;;;;;;;;;;;;;10.56;69.10;99913.56;4136911;28;19913;-70
2024/03/13 07:59:40;;;;;;;;;;;;;;;10.70;68.81;99917.59;4135092;28;19910;-72
2024/03/13 08:01:40;;;;;;;;;;;;;;;10.55;69.12;99919.09;4136196;28;20285;-71
2024/03/13 08:03:41;;;;;;;;;;;;;;;10.65;68.85;99924.38;4135040;28;19917;-71
2024/03/13 08:05:41;;;;;;;;;;;;;;;10.33;70.13;99926.44;4135414;28;19916;-71
2024/03/13 08:07:44;;;;;;;;;;;;;;;10.29;69.81;99927.75;4135816;28;19920;-70
2024/03/13 08:09:45;;;;;;;;;;;;;;;10.29;70.01;99930.41;4135322;28;19914;-70
2024/03/13 08:11:45;;;;;;;;;;;;;;;10.51;69.42;99928.38;4135819;28;19920;-70
2024/03/13 08:13:47;;;;;;;;;;;;;;;10.41;69.73;99931.91;4151040;28;20366;-70
2024/03/13 08:15:47;;;;;;;;;;;;;;;10.50;69.67;99935.56;4136045;28;19948;-70
2024/03/13 08:17:48;;;;;;;;;;;;;;;10.59;68.96;99931.16;4135106;28;19910;-71
2024/03/13 08:19:48;;;;;;;;;;;;;;;10.57;69.29;99941.16;4133675;28;19916;-71
2024/03/13 08:21:49;;;;;;;;;;;;;;;10.53;69.26;99937.91;4132932;28;19938;-70
2024/03/13 08:23:50;;;;;;;;;;;;;;;10.45;69.55;99941.34;4134474;28;19916;-70
2024/03/13 08:25:50;;;;;;;;;;;;;;;10.42;70.03;99940.81;4134651;28;19953;-72
2024/03/13 08:27:51;;;;;;;;;;;;;;;10.63;69.66;99937.06;4132939;28;19917;-71
2024/03/13 08:29:53;;;;;;;;;;;;;;;10.75;69.15;99942.06;4132485;28;19918;-70
2024/03/13 08:31:53;;;;;;;;;;;;;;;10.64;69.69;99944.94;4128836;28;19914;-71
2024/03/13 08:33:56;;;;;;;;;;;;;;;10.82;68.62;99947.63;4133124;28;19949;-72
2024/03/13 08:35:56;;;;;;;;;;;;;;;10.65;69.92;99946.63;4133741;28;19956;-73
2024/03/13 08:37:59;;;;;;;;;;;;;;;10.74;69.86;99944.88;4134076;28;19964;-71
2024/03/13 08:40:00;;;;;;;;;;;;;;;10.87;69.34;99956.06;4132904;28;19909;-72
2024/03/13 08:42:01;;;;;;;;;;;;;;;10.92;69.15;99952.94;4134754;28;19920;-71
2024/03/13 08:44:03;;;;;;;;;;;;;;;10.92;69.17;99952.94;4136250;28;19909;-71
2024/03/13 08:46:03;;;;;;;;;;;;;;;10.89;69.38;99962.13;4130887;28;19917;-71
2024/03/13 08:48:07;;;;;;;;;;;;;;;10.79;69.70;99958.66;4134258;28;19910;-71
2024/03/13 08:50:08;;;;;;;;;;;;;;;10.98;69.12;99963.03;4135115;28;19914;-71
2024/03/13 08:52:08;;;;;;;;;;;;;;;11.00;69.12;99960.22;4134247;28;20474;-72
2024/03/13 08:54:11;;;;;;;;;;;;;;;11.20;68.56;99969.81;4133520;28;20286;-70
2024/03/13 08:56:12;;;;;;;;;;;;;;;10.83;69.99;99969.88;4134450;28;19920;-71
2024/03/13 08:58:13;;;;;;;;;;;;;;;10.81;70.59;99969.19;4134377;28;19909;-71
2024/03/13 09:00:15;;;;;;;;;;;;;;;11.05;70.58;99980.16;4134071;28;20044;-71
2024/03/13 09:02:16;;;;;;;;;;;;;;;11.05;70.62;99977.50;4134251;28;19910;-73
2024/03/13 09:04:17;;;;;;;;;;;;;;;11.05;70.26;99980.16;4140213;28;19909;-70
2024/03/13 09:06:18;;;;;;;;;;;;;;;11.07;70.37;99977.38;4133073;28;20016;-70
2024/03/13 09:08:19;;;;;;;;;;;;;;;11.12;70.78;99975.06;4132992;28;20386;-72
2024/03/13 09:10:19;;;;;;;;;;;;;;;11.20;70.79;99982.34;4136626;28;20193;-69
2024/03/13 09:12:20;;;;;;;;;;;;;;;11.23;70.37;99982.06;4135189;28;19924;-71
2024/03/13 09:14:23;;;;;;;;;;;;;;;11.27;71.06;99983.41;4134664;28;19920;-72
2024/03/13 09:16:24;;;;;;;;;;;;;;;11.20;71.55;99983.19;4135526;28;20567;-70
2024/03/13 09:18:25;;;;;;;;;;;;;;;11.36;70.95;99982.50;4133832;28;19936;-71
2024/03/13 09:20:26;;;;;;;;;;;;;;;11.44;70.85;99981.78;4134632;28;19909;-70
2024/03/13 09:22:27;;;;;;;;;;;;;;;11.23;71.96;99987.41;4135799;28;19910;-70
2024/03/13 09:24:27;;;;;;;;;;;;;;;11.47;70.69;99984.16;4142563;28;19910;-70
2024/03/13 09:26:32;;;;;;;;;;;;;;;11.46;71.22;99986.97;4145333;28;19923;-70
2024/03/13 09:28:33;;;;;;;;;;;;;;;11.17;71.59;99993.34;4136612;28;19969;-70
2024/03/13 09:30:33;;;;;;;;;;;;;;;11.36;71.40;99987.03;4141844;28;19916;-71
2024/03/13 09:32:34;;;;;;;;;;;;;;;11.50;71.04;99980.31;4144673;28;19940;-71
2024/03/13 09:34:35;;;;;;;;;;;;;;;11.33;71.97;99996.22;4143820;28;19948;-71
2024/03/13 09:36:36;;;;;;;;;;;;;;;11.35;72.15;99998.75;4146196;28;19918;-71
2024/03/13 09:38:36;;;;;;;;;;;;;;;11.55;71.80;99984.22;4140186;28;19910;-71
2024/03/13 09:40:38;;;;;;;;;;;;;;;11.56;71.33;99987.72;4136545;28;20313;-72
2024/03/13 09:42:38;;;;;;;;;;;;;;;11.58;71.29;99991.09;4135385;28;19932;-71
2024/03/13 09:44:39;;;;;;;;;;;;;;;11.46;72.18;99986.97;4136149;28;19909;-71
2024/03/13 09:46:39;;;;;;;;;;;;;;;11.60;71.65;99993.63;4135988;28;19910;-70
2024/03/13 09:48:42;;;;;;;;;;;;;;;11.49;72.27;99997.38;4136671;28;19968;-70
2024/03/13 09:50:43;;;;;;;;;;;;;;;11.52;72.33;99997.09;4135621;28;19913;-70
2024/03/13 09:52:44;;;;;;;;;;;;;;;11.63;72.10;99996.00;4137132;28;19960;-70
2024/03/13 09:54:45;;;;;;;;;;;;;;;11.68;71.57;99988.34;4136486;28;19916;-71
2024/03/13 09:56:46;;;;;;;;;;;;;;;11.58;72.73;99990.25;4136800;28;19909;-71
2024/03/13 09:58:49;;;;;;;;;;;;;;;11.69;72.41;99988.19;4136778;28;19917;-70
2024/03/13 10:00:53;;;;;;;;;;;;;;;11.79;72.32;99989.97;4135460;28;19913;-71
2024/03/13 10:02:56;;;;;;;;;;;;;;;11.63;72.81;99988.78;4135516;28;19949;-71
2024/03/13 10:04:56;;;;;;;;;;;;;;;11.85;72.97;99982.13;4144031;28;20364;-69
2024/03/13 10:06:59;;;;;;;;;;;;;;;11.94;72.35;99991.09;4136070;28;19914;-70
2024/03/13 10:09:02;;;;;;;;;;;;;;;11.98;71.96;99986.28;4137745;28;19932;-70
2024/03/13 10:11:04;;;;;;;;;;;;;;;11.91;72.28;99996.75;4136685;28;19918;-71
2024/03/13 10:13:07;;;;;;;;;;;;;;;11.86;72.06;100001.72;4137273;28;19910;-70
2024/03/13 10:15:09;;;;;;;;;;;;;;;11.86;72.44;99999.06;4137093;28;20004;-71
2024/03/13 10:17:11;;;;;;;;;;;;;;;12.03;72.28;100005.44;4137083;28;19924;-71
2024/03/13 10:19:13;;;;;;;;;;;;;;;11.74;73.88;100000.28;4137328;28;19914;-71
2024/03/13 10:21:20;;;;;;;;;;;;;;;11.81;72.96;99998.66;4139324;28;19977;-71
2024/03/13 10:23:21;;;;;;;;;;;;;;;11.74;74.13;100006.50;4122787;28;20317;-71
2024/03/13 10:25:22;;;;;;;;;;;;;;;11.84;73.34;100003.72;4135193;28;19910;-71
2024/03/13 10:27:23;;;;;;;;;;;;;;;11.80;73.67;100005.88;4151139;28;19917;-70
2024/03/13 10:29:23;;;;;;;;;;;;;;;11.94;73.42;100001.78;4134392;28;20362;-71
2024/03/13 10:31:24;;;;;;;;;;;;;;;12.20;72.46;100001.00;4131516;28;19918;-71
2024/03/13 10:33:25;;;;;;;;;;;;;;;12.10;72.07;100001.13;4135778;28;20425;-71
2024/03/13 10:35:26;;;;;;;;;;;;;;;12.06;72.81;100005.09;4150204;28;19975;-71
2024/03/13 10:37:27;;;;;;;;;;;;;;;12.14;72.23;99998.97;4134374;28;20114;-71
2024/03/13 10:39:28;;;;;;;;;;;;;;;12.17;72.52;99996.81;4136998;28;19977;-71
2024/03/13 10:41:31;;;;;;;;;;;;;;;12.07;72.28;99998.75;4136919;28;19920;-71
2024/03/13 10:43:31;;;;;;;;;;;;;;;12.11;72.91;99996.59;4137027;28;19932;-71
2024/03/13 10:45:32;;;;;;;;;;;;;;;12.22;72.24;99999.03;4137354;28;19909;-71
2024/03/13 10:47:32;;;;;;;;;;;;;;;12.27;71.81;100002.09;4136871;28;20398;-71
2024/03/13 10:49:33;;;;;;;;;;;;;;;12.09;72.41;99990.56;4136879;28;19916;-71
2024/03/13 10:51:33;;;;;;;;;;;;;;;12.07;73.25;99995.25;4132319;28;19926;-71
2024/03/13 10:53:34;;;;;;;;;;;;;;;12.31;71.99;100003.44;4133696;28;19920;-71
2024/03/13 10:55:35;;;;;;;;;;;;;;;12.51;71.51;100005.91;4134268;28;19968;-71
2024/03/13 10:57:38;;;;;;;;;;;;;;;12.35;71.93;99998.59;4133403;28;19917;-71